sensor_id;sensor_type;location;lat;lon;timestamp;P1;P2;P0
81640;PMS5003;71053;50.722;-1.944;2023-07-30T00:01:40;2;1;
81640;PMS5003;71053;50.722;-1.944;2023-07-30T00:04:05;1;1;
81640;PMS5003;71053;50.722;-1.944;2023-07-30T00:06:30;1;1;
81640;PMS5003;71053;50.722;-1.944;2023-07-30T00:08:55;2;2;
81640;PMS5003;71053;50.722;-1.944;2023-07-30T00:11:20;1;1;
81640;PMS5003;71053;50.722;-1.944;2023-07-30T00:13:46;1;1;
81640;PMS5003;71053;50.722;-1.944;2023-07-30T00:16:11;1;1;
81640;PMS5003;71053;50.722;-1.944;2023-07-30T00:18:36;1;1;
81640;PMS5003;71053;50.722;-1.944;2023-07-30T00:21:01;1;0;
81640;PMS5003;71053;50.722;-1.944;2023-07-30T00:23:26;1;1;
81640;PMS5003;71053;50.722;-1.944;2023-07-30T00:25:51;1;1;
81640;PMS5003;71053;50.722;-1.944;2023-07-30T00:28:17;0;0;
81640;PMS5003;71053;50.722;-1.944;2023-07-30T00:30:42;0;0;
81640;PMS5003;71053;50.722;-1.944;2023-07-30T00:33:07;1;1;
81640;PMS5003;71053;50.722;-1.944;2023-07-30T00:35:32;1;1;
81640;PMS5003;71053;50.722;-1.944;2023-07-30T00:37:58;0;0;
81640;PMS5003;71053;50.722;-1.944;2023-07-30T00:40:22;1;1;
81640;PMS5003;71053;50.722;-1.944;2023-07-30T00:42:48;1;1;
81640;PMS5003;71053;50.722;-1.944;2023-07-30T00:45:13;1;1;
81640;PMS5003;71053;50.722;-1.944;2023-07-30T00:47:38;0;0;
81640;PMS5003;71053;50.722;-1.944;2023-07-30T00:50:03;1;1;
81640;PMS5003;71053;50.722;-1.944;2023-07-30T00:52:28;1;0;
81640;PMS5003;71053;50.722;-1.944;2023-07-30T00:54:54;0;0;
81640;PMS5003;71053;50.722;-1.944;2023-07-30T00:57:19;1;1;
81640;PMS5003;71053;50.722;-1.944;2023-07-30T00:59:43;0;0;
81640;PMS5003;71053;50.722;-1.944;2023-07-30T01:02:09;1;1;
81640;PMS5003;71053;50.722;-1.944;2023-07-30T01:04:34;1;1;
81640;PMS5003;71053;50.722;-1.944;2023-07-30T01:07:00;1;1;
81640;PMS5003;71053;50.722;-1.944;2023-07-30T01:09:24;1;1;
81640;PMS5003;71053;50.722;-1.944;2023-07-30T01:11:49;2;2;
81640;PMS5003;71053;50.722;-1.944;2023-07-30T01:14:15;1;1;
81640;PMS5003;71053;50.722;-1.944;2023-07-30T01:16:40;2;2;
81640;PMS5003;71053;50.722;-1.944;2023-07-30T01:19:05;1;1;
81640;PMS5003;71053;50.722;-1.944;2023-07-30T01:21:31;0;0;
81640;PMS5003;71053;50.722;-1.944;2023-07-30T01:23:55;1;1;
81640;PMS5003;71053;50.722;-1.944;2023-07-30T01:26:22;1;0;
81640;PMS5003;71053;50.722;-1.944;2023-07-30T01:28:47;2;2;
81640;PMS5003;71053;50.722;-1.944;2023-07-30T01:31:11;2;1;
81640;PMS5003;71053;50.722;-1.944;2023-07-30T01:33:36;1;0;
81640;PMS5003;71053;50.722;-1.944;2023-07-30T01:36:01;2;1;
81640;PMS5003;71053;50.722;-1.944;2023-07-30T01:38:26;1;1;
81640;PMS5003;71053;50.722;-1.944;2023-07-30T01:40:51;1;1;
81640;PMS5003;71053;50.722;-1.944;2023-07-30T01:43:17;2;2;
81640;PMS5003;71053;50.722;-1.944;2023-07-30T01:45:42;2;2;
81640;PMS5003;71053;50.722;-1.944;2023-07-30T01:48:07;2;1;
81640;PMS5003;71053;50.722;-1.944;2023-07-30T01:50:32;3;3;
81640;PMS5003;71053;50.722;-1.944;2023-07-30T01:52:58;1;1;
81640;PMS5003;71053;50.722;-1.944;2023-07-30T01:55:22;2;2;
81640;PMS5003;71053;50.722;-1.944;2023-07-30T01:57:48;1;1;
81640;PMS5003;71053;50.722;-1.944;2023-07-30T02:00:13;1;1;
81640;PMS5003;71053;50.722;-1.944;2023-07-30T02:02:38;1;0;
81640;PMS5003;71053;50.722;-1.944;2023-07-30T02:05:03;1;1;
81640;PMS5003;71053;50.722;-1.944;2023-07-30T02:07:28;3;2;
81640;PMS5003;71053;50.722;-1.944;2023-07-30T02:09:53;2;2;
81640;PMS5003;71053;50.722;-1.944;2023-07-30T02:12:18;1;1;
81640;PMS5003;71053;50.722;-1.944;2023-07-30T02:14:44;1;0;
81640;PMS5003;71053;50.722;-1.944;2023-07-30T02:17:09;3;2;
81640;PMS5003;71053;50.722;-1.944;2023-07-30T02:19:34;3;3;
81640;PMS5003;71053;50.722;-1.944;2023-07-30T02:21:59;2;2;
81640;PMS5003;71053;50.722;-1.944;2023-07-30T02:24:24;1;1;
81640;PMS5003;71053;50.722;-1.944;2023-07-30T02:26:49;3;2;
81640;PMS5003;71053;50.722;-1.944;2023-07-30T02:29:15;1;1;
81640;PMS5003;71053;50.722;-1.944;2023-07-30T02:31:40;2;2;
81640;PMS5003;71053;50.722;-1.944;2023-07-30T02:34:05;2;1;
81640;PMS5003;71053;50.722;-1.944;2023-07-30T02:36:30;2;2;
81640;PMS5003;71053;50.722;-1.944;2023-07-30T02:38:55;2;2;
81640;PMS5003;71053;50.722;-1.944;2023-07-30T02:41:20;4;4;
81640;PMS5003;71053;50.722;-1.944;2023-07-30T02:43:46;1;1;
81640;PMS5003;71053;50.722;-1.944;2023-07-30T02:46:11;1;1;
81640;PMS5003;71053;50.722;-1.944;2023-07-30T02:48:36;3;3;
81640;PMS5003;71053;50.722;-1.944;2023-07-30T02:51:01;2;2;
81640;PMS5003;71053;50.722;-1.944;2023-07-30T02:53:26;3;3;
81640;PMS5003;71053;50.722;-1.944;2023-07-30T02:55:51;2;2;
81640;PMS5003;71053;50.722;-1.944;2023-07-30T02:58:17;3;3;
81640;PMS5003;71053;50.722;-1.944;2023-07-30T03:00:42;2;2;
81640;PMS5003;71053;50.722;-1.944;2023-07-30T03:03:07;3;2;
81640;PMS5003;71053;50.722;-1.944;2023-07-30T03:05:32;0;0;
81640;PMS5003;71053;50.722;-1.944;2023-07-30T03:07:57;3;2;
81640;PMS5003;71053;50.722;-1.944;2023-07-30T03:10:23;3;2;
81640;PMS5003;71053;50.722;-1.944;2023-07-30T03:12:48;1;1;
81640;PMS5003;71053;50.722;-1.944;2023-07-30T03:15:13;3;3;
81640;PMS5003;71053;50.722;-1.944;2023-07-30T03:17:38;1;1;
81640;PMS5003;71053;50.722;-1.944;2023-07-30T03:20:03;0;0;
81640;PMS5003;71053;50.722;-1.944;2023-07-30T03:22:28;2;2;
81640;PMS5003;71053;50.722;-1.944;2023-07-30T03:24:54;2;2;
81640;PMS5003;71053;50.722;-1.944;2023-07-30T03:27:19;1;1;
81640;PMS5003;71053;50.722;-1.944;2023-07-30T03:29:44;2;2;
81640;PMS5003;71053;50.722;-1.944;2023-07-30T03:32:09;2;2;
81640;PMS5003;71053;50.722;-1.944;2023-07-30T03:34:34;3;2;
81640;PMS5003;71053;50.722;-1.944;2023-07-30T03:36:59;5;4;
81640;PMS5003;71053;50.722;-1.944;2023-07-30T03:39:24;3;3;
81640;PMS5003;71053;50.722;-1.944;2023-07-30T03:41:50;1;1;
81640;PMS5003;71053;50.722;-1.944;2023-07-30T03:44:15;2;2;
81640;PMS5003;71053;50.722;-1.944;2023-07-30T03:46:40;0;0;
81640;PMS5003;71053;50.722;-1.944;2023-07-30T03:49:05;3;3;
81640;PMS5003;71053;50.722;-1.944;2023-07-30T03:51:31;2;2;
81640;PMS5003;71053;50.722;-1.944;2023-07-30T03:53:55;4;3;
81640;PMS5003;71053;50.722;-1.944;2023-07-30T03:56:21;1;1;
81640;PMS5003;71053;50.722;-1.944;2023-07-30T03:58:46;3;3;
81640;PMS5003;71053;50.722;-1.944;2023-07-30T04:01:11;2;2;
81640;PMS5003;71053;50.722;-1.944;2023-07-30T04:03:36;3;3;
81640;PMS5003;71053;50.722;-1.944;2023-07-30T04:06:01;2;1;
81640;PMS5003;71053;50.722;-1.944;2023-07-30T04:08:26;3;2;
81640;PMS5003;71053;50.722;-1.944;2023-07-30T04:10:52;3;3;
81640;PMS5003;71053;50.722;-1.944;2023-07-30T04:13:17;3;3;
81640;PMS5003;71053;50.722;-1.944;2023-07-30T04:15:42;2;2;
81640;PMS5003;71053;50.722;-1.944;2023-07-30T04:18:07;2;2;
81640;PMS5003;71053;50.722;-1.944;2023-07-30T04:20:33;3;3;
81640;PMS5003;71053;50.722;-1.944;2023-07-30T04:22:58;1;1;
81640;PMS5003;71053;50.722;-1.944;2023-07-30T04:25:23;2;2;
81640;PMS5003;71053;50.722;-1.944;2023-07-30T04:27:49;2;2;
81640;PMS5003;71053;50.722;-1.944;2023-07-30T04:30:14;2;2;
81640;PMS5003;71053;50.722;-1.944;2023-07-30T04:32:39;2;2;
81640;PMS5003;71053;50.722;-1.944;2023-07-30T04:35:04;2;2;
81640;PMS5003;71053;50.722;-1.944;2023-07-30T04:37:29;4;3;
81640;PMS5003;71053;50.722;-1.944;2023-07-30T04:39:56;3;3;
81640;PMS5003;71053;50.722;-1.944;2023-07-30T04:42:20;3;3;
81640;PMS5003;71053;50.722;-1.944;2023-07-30T04:44:45;3;2;
81640;PMS5003;71053;50.722;-1.944;2023-07-30T04:47:10;3;3;
81640;PMS5003;71053;50.722;-1.944;2023-07-30T04:49:35;3;3;
81640;PMS5003;71053;50.722;-1.944;2023-07-30T04:52:00;3;3;
81640;PMS5003;71053;50.722;-1.944;2023-07-30T04:54:26;4;2;
81640;PMS5003;71053;50.722;-1.944;2023-07-30T04:56:51;2;2;
81640;PMS5003;71053;50.722;-1.944;2023-07-30T04:59:16;4;4;
81640;PMS5003;71053;50.722;-1.944;2023-07-30T05:01:41;2;2;
81640;PMS5003;71053;50.722;-1.944;2023-07-30T05:04:07;3;3;
81640;PMS5003;71053;50.722;-1.944;2023-07-30T05:06:32;3;3;
81640;PMS5003;71053;50.722;-1.944;2023-07-30T05:08:57;4;3;
81640;PMS5003;71053;50.722;-1.944;2023-07-30T05:11:23;2;2;
81640;PMS5003;71053;50.722;-1.944;2023-07-30T05:13:48;2;2;
81640;PMS5003;71053;50.722;-1.944;2023-07-30T05:16:13;2;2;
81640;PMS5003;71053;50.722;-1.944;2023-07-30T05:18:38;2;2;
81640;PMS5003;71053;50.722;-1.944;2023-07-30T05:21:03;3;3;
81640;PMS5003;71053;50.722;-1.944;2023-07-30T05:23:29;2;2;
81640;PMS5003;71053;50.722;-1.944;2023-07-30T05:25:55;4;4;
81640;PMS5003;71053;50.722;-1.944;2023-07-30T05:28:20;4;4;
81640;PMS5003;71053;50.722;-1.944;2023-07-30T05:30:45;4;4;
81640;PMS5003;71053;50.722;-1.944;2023-07-30T05:33:10;2;2;
81640;PMS5003;71053;50.722;-1.944;2023-07-30T05:35:36;3;3;
81640;PMS5003;71053;50.722;-1.944;2023-07-30T05:38:01;4;3;
81640;PMS5003;71053;50.722;-1.944;2023-07-30T05:40:26;3;3;
81640;PMS5003;71053;50.722;-1.944;2023-07-30T05:42:51;3;3;
81640;PMS5003;71053;50.722;-1.944;2023-07-30T05:45:17;2;2;
81640;PMS5003;71053;50.722;-1.944;2023-07-30T05:47:42;2;2;
81640;PMS5003;71053;50.722;-1.944;2023-07-30T05:50:08;2;2;
81640;PMS5003;71053;50.722;-1.944;2023-07-30T05:52:33;4;3;
81640;PMS5003;71053;50.722;-1.944;2023-07-30T05:54:58;3;3;
81640;PMS5003;71053;50.722;-1.944;2023-07-30T05:57:23;2;2;
81640;PMS5003;71053;50.722;-1.944;2023-07-30T05:59:49;2;2;
81640;PMS5003;71053;50.722;-1.944;2023-07-30T06:02:14;2;2;
81640;PMS5003;71053;50.722;-1.944;2023-07-30T06:04:39;5;5;
81640;PMS5003;71053;50.722;-1.944;2023-07-30T06:07:05;2;2;
81640;PMS5003;71053;50.722;-1.944;2023-07-30T06:09:30;5;4;
81640;PMS5003;71053;50.722;-1.944;2023-07-30T06:11:56;3;3;
81640;PMS5003;71053;50.722;-1.944;2023-07-30T06:14:20;2;2;
81640;PMS5003;71053;50.722;-1.944;2023-07-30T06:16:45;3;3;
81640;PMS5003;71053;50.722;-1.944;2023-07-30T06:19:11;6;4;
81640;PMS5003;71053;50.722;-1.944;2023-07-30T06:21:36;3;2;
81640;PMS5003;71053;50.722;-1.944;2023-07-30T06:24:01;3;3;
81640;PMS5003;71053;50.722;-1.944;2023-07-30T06:26:27;4;3;
81640;PMS5003;71053;50.722;-1.944;2023-07-30T06:28:52;2;2;
81640;PMS5003;71053;50.722;-1.944;2023-07-30T06:31:17;3;3;
81640;PMS5003;71053;50.722;-1.944;2023-07-30T06:33:42;2;2;
81640;PMS5003;71053;50.722;-1.944;2023-07-30T06:36:07;3;3;
81640;PMS5003;71053;50.722;-1.944;2023-07-30T06:38:33;3;3;
81640;PMS5003;71053;50.722;-1.944;2023-07-30T06:40:58;4;4;
81640;PMS5003;71053;50.722;-1.944;2023-07-30T06:43:23;2;2;
81640;PMS5003;71053;50.722;-1.944;2023-07-30T06:45:48;3;3;
81640;PMS5003;71053;50.722;-1.944;2023-07-30T06:48:13;1;1;
81640;PMS5003;71053;50.722;-1.944;2023-07-30T06:50:38;5;5;
81640;PMS5003;71053;50.722;-1.944;2023-07-30T06:53:04;4;4;
81640;PMS5003;71053;50.722;-1.944;2023-07-30T06:55:29;4;4;
81640;PMS5003;71053;50.722;-1.944;2023-07-30T06:57:54;4;4;
81640;PMS5003;71053;50.722;-1.944;2023-07-30T07:00:19;5;5;
81640;PMS5003;71053;50.722;-1.944;2023-07-30T07:02:45;4;4;
81640;PMS5003;71053;50.722;-1.944;2023-07-30T07:05:10;2;2;
81640;PMS5003;71053;50.722;-1.944;2023-07-30T07:07:36;4;4;
81640;PMS5003;71053;50.722;-1.944;2023-07-30T07:10:01;3;2;
81640;PMS5003;71053;50.722;-1.944;2023-07-30T07:12:26;7;6;
81640;PMS5003;71053;50.722;-1.944;2023-07-30T07:14:51;4;4;
81640;PMS5003;71053;50.722;-1.944;2023-07-30T07:17:16;6;6;
81640;PMS5003;71053;50.722;-1.944;2023-07-30T07:19:42;3;3;
81640;PMS5003;71053;50.722;-1.944;2023-07-30T07:22:07;3;3;
81640;PMS5003;71053;50.722;-1.944;2023-07-30T07:24:32;6;6;
81640;PMS5003;71053;50.722;-1.944;2023-07-30T07:26:57;3;3;
81640;PMS5003;71053;50.722;-1.944;2023-07-30T07:29:22;7;7;
81640;PMS5003;71053;50.722;-1.944;2023-07-30T07:31:48;5;5;
81640;PMS5003;71053;50.722;-1.944;2023-07-30T07:34:13;7;7;
81640;PMS5003;71053;50.722;-1.944;2023-07-30T07:36:38;8;7;
81640;PMS5003;71053;50.722;-1.944;2023-07-30T07:39:03;8;7;
81640;PMS5003;71053;50.722;-1.944;2023-07-30T07:41:28;4;4;
81640;PMS5003;71053;50.722;-1.944;2023-07-30T07:43:54;7;6;
81640;PMS5003;71053;50.722;-1.944;2023-07-30T07:46:20;11;11;
81640;PMS5003;71053;50.722;-1.944;2023-07-30T07:48:45;8;6;
81640;PMS5003;71053;50.722;-1.944;2023-07-30T07:51:11;5;5;
81640;PMS5003;71053;50.722;-1.944;2023-07-30T07:53:36;9;9;
81640;PMS5003;71053;50.722;-1.944;2023-07-30T07:56:01;5;5;
81640;PMS5003;71053;50.722;-1.944;2023-07-30T07:58:27;8;8;
81640;PMS5003;71053;50.722;-1.944;2023-07-30T08:00:54;10;10;
81640;PMS5003;71053;50.722;-1.944;2023-07-30T08:03:18;7;7;
81640;PMS5003;71053;50.722;-1.944;2023-07-30T08:05:43;5;5;
81640;PMS5003;71053;50.722;-1.944;2023-07-30T08:08:09;8;7;
81640;PMS5003;71053;50.722;-1.944;2023-07-30T08:10:38;15;15;
81640;PMS5003;71053;50.722;-1.944;2023-07-30T08:12:59;11;11;
81640;PMS5003;71053;50.722;-1.944;2023-07-30T08:15:25;7;7;
81640;PMS5003;71053;50.722;-1.944;2023-07-30T08:17:51;9;8;
81640;PMS5003;71053;50.722;-1.944;2023-07-30T08:20:16;8;8;
81640;PMS5003;71053;50.722;-1.944;2023-07-30T08:22:41;8;8;
81640;PMS5003;71053;50.722;-1.944;2023-07-30T08:25:07;7;7;
81640;PMS5003;71053;50.722;-1.944;2023-07-30T08:27:33;17;17;
81640;PMS5003;71053;50.722;-1.944;2023-07-30T08:29:58;6;6;
81640;PMS5003;71053;50.722;-1.944;2023-07-30T08:32:24;14;13;
81640;PMS5003;71053;50.722;-1.944;2023-07-30T08:34:50;10;10;
81640;PMS5003;71053;50.722;-1.944;2023-07-30T08:37:15;8;8;
81640;PMS5003;71053;50.722;-1.944;2023-07-30T08:39:40;10;10;
81640;PMS5003;71053;50.722;-1.944;2023-07-30T08:42:06;10;10;
81640;PMS5003;71053;50.722;-1.944;2023-07-30T08:44:32;9;9;
81640;PMS5003;71053;50.722;-1.944;2023-07-30T08:46:57;15;15;
81640;PMS5003;71053;50.722;-1.944;2023-07-30T08:49:22;12;12;
81640;PMS5003;71053;50.722;-1.944;2023-07-30T08:51:48;14;14;
81640;PMS5003;71053;50.722;-1.944;2023-07-30T08:54:14;17;16;
81640;PMS5003;71053;50.722;-1.944;2023-07-30T08:56:39;10;10;
81640;PMS5003;71053;50.722;-1.944;2023-07-30T08:59:04;22;20;
81640;PMS5003;71053;50.722;-1.944;2023-07-30T09:01:30;9;8;
81640;PMS5003;71053;50.722;-1.944;2023-07-30T09:03:55;12;11;
81640;PMS5003;71053;50.722;-1.944;2023-07-30T09:06:21;15;14;
81640;PMS5003;71053;50.722;-1.944;2023-07-30T09:08:46;20;20;
81640;PMS5003;71053;50.722;-1.944;2023-07-30T09:11:11;7;7;
81640;PMS5003;71053;50.722;-1.944;2023-07-30T09:13:37;8;8;
81640;PMS5003;71053;50.722;-1.944;2023-07-30T09:16:07;14;14;
81640;PMS5003;71053;50.722;-1.944;2023-07-30T09:18:27;9;8;
81640;PMS5003;71053;50.722;-1.944;2023-07-30T09:20:53;10;9;
81640;PMS5003;71053;50.722;-1.944;2023-07-30T09:23:18;13;12;
81640;PMS5003;71053;50.722;-1.944;2023-07-30T09:25:44;9;9;
81640;PMS5003;71053;50.722;-1.944;2023-07-30T09:28:10;9;8;
81640;PMS5003;71053;50.722;-1.944;2023-07-30T09:30:34;6;6;
81640;PMS5003;71053;50.722;-1.944;2023-07-30T09:32:59;14;14;
81640;PMS5003;71053;50.722;-1.944;2023-07-30T09:35:25;9;9;
81640;PMS5003;71053;50.722;-1.944;2023-07-30T09:37:52;6;6;
81640;PMS5003;71053;50.722;-1.944;2023-07-30T09:40:16;7;5;
81640;PMS5003;71053;50.722;-1.944;2023-07-30T09:42:42;10;10;
81640;PMS5003;71053;50.722;-1.944;2023-07-30T09:45:08;6;6;
81640;PMS5003;71053;50.722;-1.944;2023-07-30T09:47:32;5;5;
81640;PMS5003;71053;50.722;-1.944;2023-07-30T09:49:57;10;10;
81640;PMS5003;71053;50.722;-1.944;2023-07-30T09:52:23;6;6;
81640;PMS5003;71053;50.722;-1.944;2023-07-30T09:54:48;11;11;
81640;PMS5003;71053;50.722;-1.944;2023-07-30T09:57:13;6;6;
81640;PMS5003;71053;50.722;-1.944;2023-07-30T09:59:39;9;8;
81640;PMS5003;71053;50.722;-1.944;2023-07-30T10:02:04;11;10;
81640;PMS5003;71053;50.722;-1.944;2023-07-30T10:04:29;10;9;
81640;PMS5003;71053;50.722;-1.944;2023-07-30T10:06:55;10;10;
81640;PMS5003;71053;50.722;-1.944;2023-07-30T10:09:20;11;11;
81640;PMS5003;71053;50.722;-1.944;2023-07-30T10:11:45;7;7;
81640;PMS5003;71053;50.722;-1.944;2023-07-30T10:14:11;6;6;
81640;PMS5003;71053;50.722;-1.944;2023-07-30T10:16:36;5;5;
81640;PMS5003;71053;50.722;-1.944;2023-07-30T10:19:01;8;8;
81640;PMS5003;71053;50.722;-1.944;2023-07-30T10:21:27;5;5;
81640;PMS5003;71053;50.722;-1.944;2023-07-30T10:26:17;6;6;
81640;PMS5003;71053;50.722;-1.944;2023-07-30T10:28:42;6;5;
81640;PMS5003;71053;50.722;-1.944;2023-07-30T10:31:07;4;4;
81640;PMS5003;71053;50.722;-1.944;2023-07-30T10:35:57;4;4;
81640;PMS5003;71053;50.722;-1.944;2023-07-30T10:38:28;5;5;
81640;PMS5003;71053;50.722;-1.944;2023-07-30T10:43:14;7;6;
81640;PMS5003;71053;50.722;-1.944;2023-07-30T10:45:42;6;6;
81640;PMS5003;71053;50.722;-1.944;2023-07-30T10:48:04;5;5;
81640;PMS5003;71053;50.722;-1.944;2023-07-30T10:50:29;4;4;
81640;PMS5003;71053;50.722;-1.944;2023-07-30T10:52:54;11;11;
81640;PMS5003;71053;50.722;-1.944;2023-07-30T10:55:19;6;6;
81640;PMS5003;71053;50.722;-1.944;2023-07-30T10:57:45;7;6;
81640;PMS5003;71053;50.722;-1.944;2023-07-30T11:00:10;6;6;
81640;PMS5003;71053;50.722;-1.944;2023-07-30T11:02:35;9;8;
81640;PMS5003;71053;50.722;-1.944;2023-07-30T11:07:26;7;7;
81640;PMS5003;71053;50.722;-1.944;2023-07-30T11:09:58;11;11;
81640;PMS5003;71053;50.722;-1.944;2023-07-30T11:12:17;11;8;
81640;PMS5003;71053;50.722;-1.944;2023-07-30T11:14:43;12;10;
81640;PMS5003;71053;50.722;-1.944;2023-07-30T11:17:08;8;8;
81640;PMS5003;71053;50.722;-1.944;2023-07-30T11:19:33;12;11;
81640;PMS5003;71053;50.722;-1.944;2023-07-30T11:21:58;11;10;
81640;PMS5003;71053;50.722;-1.944;2023-07-30T11:29:14;16;15;
81640;PMS5003;71053;50.722;-1.944;2023-07-30T11:31:40;12;12;
81640;PMS5003;71053;50.722;-1.944;2023-07-30T11:34:05;15;15;
81640;PMS5003;71053;50.722;-1.944;2023-07-30T11:36:31;16;16;
81640;PMS5003;71053;50.722;-1.944;2023-07-30T11:38:57;16;16;
81640;PMS5003;71053;50.722;-1.944;2023-07-30T11:41:22;11;11;
81640;PMS5003;71053;50.722;-1.944;2023-07-30T11:43:47;11;11;
81640;PMS5003;71053;50.722;-1.944;2023-07-30T11:46:13;16;15;
81640;PMS5003;71053;50.722;-1.944;2023-07-30T11:48:38;16;16;
81640;PMS5003;71053;50.722;-1.944;2023-07-30T11:51:03;14;13;
81640;PMS5003;71053;50.722;-1.944;2023-07-30T11:55:54;13;11;
81640;PMS5003;71053;50.722;-1.944;2023-07-30T11:58:20;12;11;
81640;PMS5003;71053;50.722;-1.944;2023-07-30T12:00:45;13;13;
81640;PMS5003;71053;50.722;-1.944;2023-07-30T12:03:11;12;12;
81640;PMS5003;71053;50.722;-1.944;2023-07-30T12:05:36;9;9;
81640;PMS5003;71053;50.722;-1.944;2023-07-30T12:08:01;9;9;
81640;PMS5003;71053;50.722;-1.944;2023-07-30T12:10:26;12;11;
81640;PMS5003;71053;50.722;-1.944;2023-07-30T12:12:52;10;10;
81640;PMS5003;71053;50.722;-1.944;2023-07-30T12:15:18;13;11;
81640;PMS5003;71053;50.722;-1.944;2023-07-30T12:17:43;12;11;
81640;PMS5003;71053;50.722;-1.944;2023-07-30T12:20:10;11;11;
81640;PMS5003;71053;50.722;-1.944;2023-07-30T12:22:35;11;11;
81640;PMS5003;71053;50.722;-1.944;2023-07-30T12:25:01;9;9;
81640;PMS5003;71053;50.722;-1.944;2023-07-30T12:27:25;11;11;
81640;PMS5003;71053;50.722;-1.944;2023-07-30T12:29:51;11;10;
81640;PMS5003;71053;50.722;-1.944;2023-07-30T12:32:16;10;9;
81640;PMS5003;71053;50.722;-1.944;2023-07-30T12:34:41;7;7;
81640;PMS5003;71053;50.722;-1.944;2023-07-30T12:37:06;14;13;
81640;PMS5003;71053;50.722;-1.944;2023-07-30T12:39:32;12;12;
81640;PMS5003;71053;50.722;-1.944;2023-07-30T12:41:58;10;9;
81640;PMS5003;71053;50.722;-1.944;2023-07-30T12:44:23;10;10;
81640;PMS5003;71053;50.722;-1.944;2023-07-30T12:46:48;11;11;
81640;PMS5003;71053;50.722;-1.944;2023-07-30T12:49:13;13;12;
81640;PMS5003;71053;50.722;-1.944;2023-07-30T12:51:39;10;9;
81640;PMS5003;71053;50.722;-1.944;2023-07-30T12:54:04;11;11;
81640;PMS5003;71053;50.722;-1.944;2023-07-30T12:56:29;9;9;
81640;PMS5003;71053;50.722;-1.944;2023-07-30T12:58:55;9;9;
81640;PMS5003;71053;50.722;-1.944;2023-07-30T13:01:20;9;9;
81640;PMS5003;71053;50.722;-1.944;2023-07-30T13:03:45;11;11;
81640;PMS5003;71053;50.722;-1.944;2023-07-30T13:06:10;9;9;
81640;PMS5003;71053;50.722;-1.944;2023-07-30T13:08:36;12;11;
81640;PMS5003;71053;50.722;-1.944;2023-07-30T13:11:01;11;11;
81640;PMS5003;71053;50.722;-1.944;2023-07-30T13:13:27;11;11;
81640;PMS5003;71053;50.722;-1.944;2023-07-30T13:15:52;11;11;
81640;PMS5003;71053;50.722;-1.944;2023-07-30T13:18:17;11;11;
81640;PMS5003;71053;50.722;-1.944;2023-07-30T13:20:42;9;9;
81640;PMS5003;71053;50.722;-1.944;2023-07-30T13:23:07;9;9;
81640;PMS5003;71053;50.722;-1.944;2023-07-30T13:25:33;10;9;
81640;PMS5003;71053;50.722;-1.944;2023-07-30T13:27:58;10;10;
81640;PMS5003;71053;50.722;-1.944;2023-07-30T13:30:23;9;9;
81640;PMS5003;71053;50.722;-1.944;2023-07-30T13:32:49;9;9;
81640;PMS5003;71053;50.722;-1.944;2023-07-30T13:35:14;8;8;
81640;PMS5003;71053;50.722;-1.944;2023-07-30T13:37:40;13;12;
81640;PMS5003;71053;50.722;-1.944;2023-07-30T13:40:06;12;11;
81640;PMS5003;71053;50.722;-1.944;2023-07-30T13:42:31;11;10;
81640;PMS5003;71053;50.722;-1.944;2023-07-30T13:44:57;9;9;
81640;PMS5003;71053;50.722;-1.944;2023-07-30T13:47:22;8;8;
81640;PMS5003;71053;50.722;-1.944;2023-07-30T13:49:47;9;8;
81640;PMS5003;71053;50.722;-1.944;2023-07-30T13:52:12;9;9;
81640;PMS5003;71053;50.722;-1.944;2023-07-30T13:56:02;10;10;
81640;PMS5003;71053;50.722;-1.944;2023-07-30T13:58:27;9;7;
81640;PMS5003;71053;50.722;-1.944;2023-07-30T14:00:53;9;8;
81640;PMS5003;71053;50.722;-1.944;2023-07-30T14:03:17;10;10;
81640;PMS5003;71053;50.722;-1.944;2023-07-30T14:05:43;11;10;
81640;PMS5003;71053;50.722;-1.944;2023-07-30T14:08:08;10;10;
81640;PMS5003;71053;50.722;-1.944;2023-07-30T14:10:33;10;10;
81640;PMS5003;71053;50.722;-1.944;2023-07-30T14:12:58;11;11;
81640;PMS5003;71053;50.722;-1.944;2023-07-30T14:15:24;12;12;
81640;PMS5003;71053;50.722;-1.944;2023-07-30T14:17:49;14;12;
81640;PMS5003;71053;50.722;-1.944;2023-07-30T14:20:14;12;12;
81640;PMS5003;71053;50.722;-1.944;2023-07-30T14:22:40;10;9;
81640;PMS5003;71053;50.722;-1.944;2023-07-30T14:25:06;13;12;
81640;PMS5003;71053;50.722;-1.944;2023-07-30T14:27:32;11;9;
81640;PMS5003;71053;50.722;-1.944;2023-07-30T14:29:57;7;7;
81640;PMS5003;71053;50.722;-1.944;2023-07-30T14:32:23;10;9;
81640;PMS5003;71053;50.722;-1.944;2023-07-30T14:34:49;11;10;
81640;PMS5003;71053;50.722;-1.944;2023-07-30T14:37:14;12;11;
81640;PMS5003;71053;50.722;-1.944;2023-07-30T14:39:39;7;7;
81640;PMS5003;71053;50.722;-1.944;2023-07-30T14:42:05;9;8;
81640;PMS5003;71053;50.722;-1.944;2023-07-30T14:44:31;9;8;
81640;PMS5003;71053;50.722;-1.944;2023-07-30T14:46:56;11;10;
81640;PMS5003;71053;50.722;-1.944;2023-07-30T14:49:21;9;9;
81640;PMS5003;71053;50.722;-1.944;2023-07-30T14:51:46;12;11;
81640;PMS5003;71053;50.722;-1.944;2023-07-30T14:54:11;8;8;
81640;PMS5003;71053;50.722;-1.944;2023-07-30T14:56:37;9;9;
81640;PMS5003;71053;50.722;-1.944;2023-07-30T14:59:02;8;8;
81640;PMS5003;71053;50.722;-1.944;2023-07-30T15:01:28;9;9;
81640;PMS5003;71053;50.722;-1.944;2023-07-30T15:03:52;8;7;
81640;PMS5003;71053;50.722;-1.944;2023-07-30T15:06:18;6;6;
81640;PMS5003;71053;50.722;-1.944;2023-07-30T15:08:43;9;8;
81640;PMS5003;71053;50.722;-1.944;2023-07-30T15:11:08;9;8;
81640;PMS5003;71053;50.722;-1.944;2023-07-30T15:13:34;7;7;
81640;PMS5003;71053;50.722;-1.944;2023-07-30T15:16:00;7;7;
81640;PMS5003;71053;50.722;-1.944;2023-07-30T15:18:25;8;8;
81640;PMS5003;71053;50.722;-1.944;2023-07-30T15:20:50;6;5;
81640;PMS5003;71053;50.722;-1.944;2023-07-30T15:23:16;8;7;
81640;PMS5003;71053;50.722;-1.944;2023-07-30T15:25:41;8;8;
81640;PMS5003;71053;50.722;-1.944;2023-07-30T15:28:07;10;10;
81640;PMS5003;71053;50.722;-1.944;2023-07-30T15:30:33;9;8;
81640;PMS5003;71053;50.722;-1.944;2023-07-30T15:32:58;7;6;
81640;PMS5003;71053;50.722;-1.944;2023-07-30T15:35:23;8;7;
81640;PMS5003;71053;50.722;-1.944;2023-07-30T15:37:48;10;8;
81640;PMS5003;71053;50.722;-1.944;2023-07-30T15:40:13;7;7;
81640;PMS5003;71053;50.722;-1.944;2023-07-30T15:42:39;8;8;
81640;PMS5003;71053;50.722;-1.944;2023-07-30T15:45:04;8;8;
81640;PMS5003;71053;50.722;-1.944;2023-07-30T15:47:29;9;9;
81640;PMS5003;71053;50.722;-1.944;2023-07-30T15:49:54;10;8;
81640;PMS5003;71053;50.722;-1.944;2023-07-30T15:52:19;10;10;
81640;PMS5003;71053;50.722;-1.944;2023-07-30T15:54:44;10;10;
81640;PMS5003;71053;50.722;-1.944;2023-07-30T15:57:10;7;6;
81640;PMS5003;71053;50.722;-1.944;2023-07-30T15:59:36;8;8;
81640;PMS5003;71053;50.722;-1.944;2023-07-30T16:02:01;10;9;
81640;PMS5003;71053;50.722;-1.944;2023-07-30T16:04:27;7;7;
81640;PMS5003;71053;50.722;-1.944;2023-07-30T16:06:52;9;8;
81640;PMS5003;71053;50.722;-1.944;2023-07-30T16:09:17;11;10;
81640;PMS5003;71053;50.722;-1.944;2023-07-30T16:11:42;6;6;
81640;PMS5003;71053;50.722;-1.944;2023-07-30T16:14:08;12;11;
81640;PMS5003;71053;50.722;-1.944;2023-07-30T16:16:33;9;8;
81640;PMS5003;71053;50.722;-1.944;2023-07-30T16:18:58;11;10;
81640;PMS5003;71053;50.722;-1.944;2023-07-30T16:21:24;7;7;
81640;PMS5003;71053;50.722;-1.944;2023-07-30T16:23:50;8;8;
81640;PMS5003;71053;50.722;-1.944;2023-07-30T16:26:15;6;6;
81640;PMS5003;71053;50.722;-1.944;2023-07-30T16:28:41;7;6;
81640;PMS5003;71053;50.722;-1.944;2023-07-30T16:31:06;8;8;